Latest Weather Observations for Wattamolla

IDN60901

Issued at 9:31 pm EST Tuesday 7 July 2015 (issued every 10 minutes, with the page automatically refreshed every 10 minutes)

About weather observations | Map of Sydney area stations | Latest observations for Sydney area | Other Formats
Station Details ID: 066208 Name: WATTAMOLLA AWS Lat: -34.14 Lon: 151.12 Height: 44.0 m
Data from the previous 72 hours. | See also: Recent months for locations in New South Wales
Date/Time
EST
Tmp

°C
App
Tmp
°C
Dew
Point
°C
Rel
Hum
%
Delta-T

°C
Wind Press
QNH
hPa
Press
MSL
hPa
Rain
since
9 am
mm
Dir
 
Spd
km/h
Gust
km/h
Spd
kts
Gust
kts
07/09:30pm - - - - - S 35 46 19 25 - - -
07/09:00pm - - - - - S 37 48 20 26 - - -
07/08:38pm - - - - - S 33 59 18 32 - - -
07/08:30pm - - - - - S 32 41 17 22 - - -
07/08:00pm - - - - - S 54 61 29 33 - - -
07/07:33pm - - - - - S 41 59 22 32 - - -
07/07:30pm - - - - - S 37 52 20 28 - - -
07/07:26pm - - - - - S 30 48 16 26 - - -
07/07:00pm - - - - - S 22 35 12 19 - - -
07/06:59pm - - - - - S 24 35 13 19 - - -
07/06:30pm - - - - - S 52 61 28 33 - - -
07/06:00pm - - - - - S 28 48 15 26 - - -
07/05:59pm - - - - - S 28 48 15 26 - - -
07/05:30pm - - - - - S 33 43 18 23 - - -
07/05:14pm - - - - - S 46 65 25 35 - - -
07/05:00pm - - - - - S 41 56 22 30 - - -
07/04:30pm - - - - - S 43 56 23 30 - - -
07/04:00pm - - - - - S 46 54 25 29 - - -
07/03:35pm - - - - - S 32 50 17 27 - - -
07/03:30pm - - - - - S 28 35 15 19 - - -
07/03:07pm - - - - - S 28 46 15 25 - - -
07/03:00pm - - - - - S 35 50 19 27 - - -
07/02:31pm - - - - - S 44 65 24 35 - - -
07/02:30pm - - - - - S 43 56 23 30 - - -
07/02:00pm - - - - - S 43 52 23 28 - - -
07/01:30pm - - - - - S 44 57 24 31 - - -
07/01:00pm - - - - - - - - - - - - -
07/12:30pm - - - - - S 46 57 25 31 - - -
07/12:00pm - - - - - S 43 56 23 30 - - -
07/11:30am - - - - - S 43 54 23 29 - - -
07/11:00am - - - - - S 50 59 27 32 - - -
07/10:30am - - - - - S 44 59 24 32 - - -
07/10:27am - - - - - S 48 59 26 32 - - -
07/10:00am - - - - - S 57 70 31 38 - - -
07/09:43am - - - - - S 54 65 29 35 - - -
07/09:30am - - - - - S 43 57 23 31 - - -
07/09:00am - - - - - S 43 54 23 29 - - -
07/08:39am - - - - - SSW 26 50 14 27 - - -
07/08:30am - - - - - W 19 30 10 16 - - -
07/08:00am - - - - - W 17 24 9 13 - - -
07/07:30am - - - - - W 24 28 13 15 - - -
07/07:00am - - - - - W 20 26 11 14 - - -
07/06:30am - - - - - W 20 28 11 15 - - -
07/06:00am - - - - - W 22 28 12 15 - - -
07/05:30am - - - - - W 24 30 13 16 - - -
07/05:00am - - - - - W 19 24 10 13 - - -
07/04:30am - - - - - W 20 26 11 14 - - -
07/04:00am - - - - - W 19 28 10 15 - - -
07/03:30am - - - - - W 26 35 14 19 - - -
07/03:00am - - - - - WNW 26 35 14 19 - - -
07/02:30am - - - - - WNW 24 35 13 19 - - -
07/02:00am - - - - - WNW 30 43 16 23 - - -
07/01:30am - - - - - WNW 26 37 14 20 - - -
07/01:00am - - - - - W 26 35 14 19 - - -
07/12:30am - - - - - WNW 22 33 12 18 - - -
07/12:00am - - - - - W 30 39 16 21 - - -
 
Date/Time
EST
Tmp

°C
App
Tmp
°C
Dew
Point
°C
Rel
Hum
%
Delta-T

°C
Wind Press
QNH
hPa
Press
MSL
hPa
Rain
since
9 am
mm
Dir
 
Spd
km/h
Gust
km/h
Spd
kts
Gust
kts
06/11:30pm - - - - - WNW 28 37 15 20 - - -
06/11:00pm - - - - - WNW 30 39 16 21 - - -
06/10:30pm - - - - - W 33 46 18 25 - - -
06/10:00pm - - - - - WNW 32 44 17 24 - - -
06/09:30pm - - - - - WNW 32 41 17 22 - - -
06/09:00pm - - - - - WNW 30 39 16 21 - - -
06/08:30pm - - - - - WNW 28 46 15 25 - - -
06/08:23pm - - - - - WNW 28 46 15 25 - - -
06/08:00pm - - - - - WNW 26 37 14 20 - - -
06/07:30pm - - - - - WNW 26 39 14 21 - - -
06/07:00pm - - - - - WNW 24 35 13 19 - - -
06/06:30pm - - - - - WNW 24 37 13 20 - - -
06/06:00pm - - - - - WNW 22 33 12 18 - - -
06/05:30pm - - - - - WNW 22 30 12 16 - - -
06/05:00pm - - - - - W 22 32 12 17 - - -
06/04:30pm - - - - - W 19 28 10 15 - - -
06/04:00pm - - - - - W 20 30 11 16 - - -
06/03:30pm - - - - - W 22 30 12 16 - - -
06/03:00pm - - - - - W 22 30 12 16 - - -
06/02:30pm - - - - - W 19 30 10 16 - - -
06/02:00pm - - - - - WNW 20 28 11 15 - - -
06/01:30pm - - - - - W 19 28 10 15 - - -
06/01:00pm - - - - - W 17 26 9 14 - - -
06/12:30pm - - - - - W 20 26 11 14 - - -
06/12:00pm - - - - - W 15 26 8 14 - - -
06/11:30am - - - - - WNW 13 24 7 13 - - -
06/11:00am - - - - - NW 19 30 10 16 - - -
06/10:30am - - - - - NW 17 28 9 15 - - -
06/10:00am - - - - - WNW 17 28 9 15 - - -
06/09:30am - - - - - WNW 22 33 12 18 - - -
06/09:00am - - - - - W 15 30 8 16 - - -
06/08:30am - - - - - NW 13 19 7 10 - - -
06/08:00am - - - - - WNW 13 22 7 12 - - -
06/07:30am - - - - - WNW 13 17 7 9 - - -
06/07:00am - - - - - W 22 28 12 15 - - -
06/06:30am - - - - - W 19 26 10 14 - - -
06/06:00am - - - - - NE 7 13 4 7 - - -
06/05:30am - - - - - SW 13 19 7 10 - - -
06/05:00am - - - - - S 9 19 5 10 - - -
06/04:30am - - - - - WNW 22 33 12 18 - - -
06/04:00am - - - - - NW 26 33 14 18 - - -
06/03:30am - - - - - WNW 24 32 13 17 - - -
06/03:00am - - - - - WNW 22 32 12 17 - - -
06/02:30am - - - - - W 13 24 7 13 - - -
06/02:00am - - - - - SW 7 11 4 6 - - -
06/01:30am - - - - - SW 11 15 6 8 - - -
06/01:00am - - - - - WSW 20 28 11 15 - - -
06/12:30am - - - - - WSW 19 24 10 13 - - -
06/12:00am - - - - - WSW 13 15 7 8 - - -
 
Date/Time
EST
Tmp

°C
App
Tmp
°C
Dew
Point
°C
Rel
Hum
%
Delta-T

°C
Wind Press
QNH
hPa
Press
MSL
hPa
Rain
since
9 am
mm
Dir
 
Spd
km/h
Gust
km/h
Spd
kts
Gust
kts
05/11:30pm - - - - - WNW 11 15 6 8 - - -
05/11:00pm - - - - - W 15 19 8 10 - - -
05/10:30pm - - - - - WNW 9 11 5 6 - - -
05/10:00pm - - - - - NW 20 22 11 12 - - -
05/09:30pm - - - - - NW 19 22 10 12 - - -
05/09:00pm - - - - - NW 20 24 11 13 - - -
05/08:30pm - - - - - NW 24 28 13 15 - - -
05/08:00pm - - - - - NW 17 24 9 13 - - -
05/07:30pm - - - - - NW 24 28 13 15 - - -
05/07:00pm - - - - - NW 24 28 13 15 - - -
05/06:30pm - - - - - NW 17 20 9 11 - - -
05/06:00pm - - - - - NNW 15 17 8 9 - - -
05/05:30pm - - - - - NNW 13 13 7 7 - - -
05/05:00pm - - - - - NNW 11 15 6 8 - - -
05/04:30pm - - - - - N 9 13 5 7 - - -
05/04:00pm - - - - - NNE 9 13 5 7 - - -
05/03:30pm - - - - - N 11 15 6 8 - - -
05/03:00pm - - - - - - - - - - - - -
05/02:30pm - - - - - NNW 9 13 5 7 - - -
05/02:00pm - - - - - N 13 15 7 8 - - -
05/01:30pm - - - - - N 9 15 5 8 - - -
05/01:00pm - - - - - NNW 13 19 7 10 - - -
05/12:30pm - - - - - NNW 13 19 7 10 - - -
05/12:00pm - - - - - NNW 13 20 7 11 - - -
05/11:30am - - - - - NNW 15 22 8 12 - - -
05/11:00am - - - - - NW 17 24 9 13 - - -
05/10:30am - - - - - NW 19 26 10 14 - - -
05/10:00am - - - - - NW 17 28 9 15 - - -
05/09:30am - - - - - NW 20 28 11 15 - - -
05/09:00am - - - - - NW 20 28 11 15 - - -
05/08:30am - - - - - NW 19 22 10 12 - - -
05/08:00am - - - - - NW 20 22 11 12 - - -
05/07:30am - - - - - NW 19 22 10 12 - - -
05/07:00am - - - - - NW 20 22 11 12 - - -
05/06:30am - - - - - NW 20 22 11 12 - - -
05/06:00am - - - - - NW 15 19 8 10 - - -
05/05:30am - - - - - NW 13 17 7 9 - - -
05/05:00am - - - - - WNW 13 17 7 9 - - -
05/04:30am - - - - - NW 19 19 10 10 - - -
05/04:00am - - - - - NW 17 17 9 9 - - -
05/03:30am - - - - - NW 15 19 8 10 - - -
05/03:00am - - - - - NW 17 19 9 10 - - -
05/02:30am - - - - - NW 17 19 9 10 - - -
05/02:00am - - - - - NW 19 20 10 11 - - -
05/01:30am - - - - - NW 17 19 9 10 - - -
05/01:00am - - - - - NW 17 19 9 10 - - -
05/12:30am - - - - - NW 15 17 8 9 - - -
05/12:00am - - - - - WNW 15 19 8 10 - - -
 
Date/Time
EST
Tmp

°C
App
Tmp
°C
Dew
Point
°C
Rel
Hum
%
Delta-T

°C
Wind Press
QNH
hPa
Press
MSL
hPa
Rain
since
9 am
mm
Dir
 
Spd
km/h
Gust
km/h
Spd
kts
Gust
kts
04/11:30pm - - - - - NW 15 19 8 10 - - -
04/11:00pm - - - - - WNW 19 24 10 13 - - -
04/10:30pm - - - - - W 24 28 13 15 - - -
04/10:00pm - - - - - W 24 30 13 16 - - -

Latest Capital City Observations: Canberra | Sydney | Melbourne | Brisbane | Adelaide | Perth | Hobart | Darwin

Other Formats:

Comma delimited format used in spreadsheet applications
http://www.bom.gov.au/fwo/IDN60901/IDN60901.95752.axf

JavaScript Object Notation format (JSON) in row-major order
http://www.bom.gov.au/fwo/IDN60901/IDN60901.95752.json